Terminal Aerodrome Forecast
Issued by NWS Blacksburg, VA

Home | Current Version | Previous Version | Text Only | Print | Product List | Glossary On
Versions: 1 2 3 4 5 6 7 8 9 10 11 12 13 14 15 16 17 18 19 20 21 22 23
858
FTUS41 KRNK 210520
TAFLYH
TAF
KLYH 210520Z 2106/2206 24003KT P6SM SCT045 WS020/31030KT
     FM211500 22005KT P6SM SCT045
     FM220000 00000KT P6SM BKN050=

USA.gov is the U.S. government's official web portal to all federal, state and local government web resources and services.